sensor_id;sensor_type;location;lat;lon;timestamp;temperature;humidity
56123;DHT22;42426;46.104;19.656;2023-04-08T00:00:28;179.20;2252.80
56123;DHT22;42426;46.104;19.656;2023-04-08T00:02:55;179.30;2252.80
56123;DHT22;42426;46.104;19.656;2023-04-08T00:05:29;179.30;2252.80
56123;DHT22;42426;46.104;19.656;2023-04-08T00:08:00;179.30;2252.80
56123;DHT22;42426;46.104;19.656;2023-04-08T00:10:27;179.30;2252.80
56123;DHT22;42426;46.104;19.656;2023-04-08T00:12:55;179.30;2252.80
56123;DHT22;42426;46.104;19.656;2023-04-08T00:15:20;179.20;2252.80
56123;DHT22;42426;46.104;19.656;2023-04-08T00:17:47;179.30;2252.80
56123;DHT22;42426;46.104;19.656;2023-04-08T00:20:23;179.30;2252.80
56123;DHT22;42426;46.104;19.656;2023-04-08T00:22:49;179.30;2252.80
56123;DHT22;42426;46.104;19.656;2023-04-08T00:25:17;179.30;2252.80
56123;DHT22;42426;46.104;19.656;2023-04-08T00:27:51;179.30;2252.80
56123;DHT22;42426;46.104;19.656;2023-04-08T00:30:18;179.30;2252.80
56123;DHT22;42426;46.104;19.656;2023-04-08T00:32:44;179.30;2252.80
56123;DHT22;42426;46.104;19.656;2023-04-08T00:35:12;179.20;2252.80
56123;DHT22;42426;46.104;19.656;2023-04-08T00:37:46;179.30;2252.80
56123;DHT22;42426;46.104;19.656;2023-04-08T00:40:14;179.30;2252.80
56123;DHT22;42426;46.104;19.656;2023-04-08T00:42:51;179.30;2252.80
56123;DHT22;42426;46.104;19.656;2023-04-08T00:45:20;179.20;2252.80
56123;DHT22;42426;46.104;19.656;2023-04-08T00:47:49;179.20;2252.80
56123;DHT22;42426;46.104;19.656;2023-04-08T00:50:18;179.20;2252.80
56123;DHT22;42426;46.104;19.656;2023-04-08T00:52:44;179.20;2252.80
56123;DHT22;42426;46.104;19.656;2023-04-08T00:55:10;179.30;2252.80
56123;DHT22;42426;46.104;19.656;2023-04-08T00:57:36;179.30;2252.80
56123;DHT22;42426;46.104;19.656;2023-04-08T01:00:03;179.30;2252.80
56123;DHT22;42426;46.104;19.656;2023-04-08T01:02:38;179.20;2252.80
56123;DHT22;42426;46.104;19.656;2023-04-08T01:05:08;179.20;2252.80
56123;DHT22;42426;46.104;19.656;2023-04-08T01:07:43;179.20;2252.80
56123;DHT22;42426;46.104;19.656;2023-04-08T01:10:21;179.20;2252.80
56123;DHT22;42426;46.104;19.656;2023-04-08T01:12:52;179.20;2252.80
56123;DHT22;42426;46.104;19.656;2023-04-08T01:15:18;179.20;2252.80
56123;DHT22;42426;46.104;19.656;2023-04-08T01:17:46;179.20;2252.80
56123;DHT22;42426;46.104;19.656;2023-04-08T01:20:13;179.20;2252.80
56123;DHT22;42426;46.104;19.656;2023-04-08T01:25:23;179.20;2252.80
56123;DHT22;42426;46.104;19.656;2023-04-08T01:27:52;179.20;2252.80
56123;DHT22;42426;46.104;19.656;2023-04-08T01:30:24;154.50;2252.80
56123;DHT22;42426;46.104;19.656;2023-04-08T01:32:52;154.50;2252.80
56123;DHT22;42426;46.104;19.656;2023-04-08T01:35:18;179.20;2252.80
56123;DHT22;42426;46.104;19.656;2023-04-08T01:37:46;154.50;2252.80
56123;DHT22;42426;46.104;19.656;2023-04-08T01:40:14;154.50;2252.80
56123;DHT22;42426;46.104;19.656;2023-04-08T01:42:41;154.50;2252.80
56123;DHT22;42426;46.104;19.656;2023-04-08T01:45:08;154.50;2252.80
56123;DHT22;42426;46.104;19.656;2023-04-08T01:47:35;154.50;2252.80
56123;DHT22;42426;46.104;19.656;2023-04-08T01:50:01;154.50;2252.80
56123;DHT22;42426;46.104;19.656;2023-04-08T01:52:28;154.50;2252.80
56123;DHT22;42426;46.104;19.656;2023-04-08T01:54:55;154.50;2252.80
56123;DHT22;42426;46.104;19.656;2023-04-08T01:57:27;154.50;2252.80
56123;DHT22;42426;46.104;19.656;2023-04-08T01:59:58;154.50;2252.80
56123;DHT22;42426;46.104;19.656;2023-04-08T02:02:34;154.50;2252.80
56123;DHT22;42426;46.104;19.656;2023-04-08T02:05:00;154.50;2252.80
56123;DHT22;42426;46.104;19.656;2023-04-08T02:07:26;154.40;2252.80
56123;DHT22;42426;46.104;19.656;2023-04-08T02:09:52;154.40;2252.80
56123;DHT22;42426;46.104;19.656;2023-04-08T02:12:21;154.40;2252.80
56123;DHT22;42426;46.104;19.656;2023-04-08T02:14:47;154.40;2252.80
56123;DHT22;42426;46.104;19.656;2023-04-08T02:17:20;154.40;2252.80
56123;DHT22;42426;46.104;19.656;2023-04-08T02:22:28;154.30;2252.80
56123;DHT22;42426;46.104;19.656;2023-04-08T02:24:55;154.30;2252.80
56123;DHT22;42426;46.104;19.656;2023-04-08T02:27:22;154.20;2252.80
56123;DHT22;42426;46.104;19.656;2023-04-08T02:29:49;154.30;2252.80
56123;DHT22;42426;46.104;19.656;2023-04-08T02:32:16;154.30;2252.80
56123;DHT22;42426;46.104;19.656;2023-04-08T02:34:42;154.30;2252.80
56123;DHT22;42426;46.104;19.656;2023-04-08T02:37:09;154.30;2252.80
56123;DHT22;42426;46.104;19.656;2023-04-08T02:39:35;154.20;2252.80
56123;DHT22;42426;46.104;19.656;2023-04-08T02:42:00;154.20;2252.80
56123;DHT22;42426;46.104;19.656;2023-04-08T02:44:26;154.20;2252.80
56123;DHT22;42426;46.104;19.656;2023-04-08T02:46:52;154.20;2252.80
56123;DHT22;42426;46.104;19.656;2023-04-08T02:49:17;154.20;2252.80
56123;DHT22;42426;46.104;19.656;2023-04-08T02:51:43;154.10;2252.80
56123;DHT22;42426;46.104;19.656;2023-04-08T02:54:08;154.10;2252.80
56123;DHT22;42426;46.104;19.656;2023-04-08T02:56:34;154.10;2252.80
56123;DHT22;42426;46.104;19.656;2023-04-08T02:59:00;154.10;2252.80
56123;DHT22;42426;46.104;19.656;2023-04-08T03:01:26;154.00;2252.80
56123;DHT22;42426;46.104;19.656;2023-04-08T03:03:57;154.00;2252.80
56123;DHT22;42426;46.104;19.656;2023-04-08T03:06:24;154.00;2252.80
56123;DHT22;42426;46.104;19.656;2023-04-08T03:08:51;154.00;2252.80
56123;DHT22;42426;46.104;19.656;2023-04-08T03:11:16;154.00;2252.80
56123;DHT22;42426;46.104;19.656;2023-04-08T03:13:42;153.90;2252.80
56123;DHT22;42426;46.104;19.656;2023-04-08T03:16:08;154.00;2252.80
56123;DHT22;42426;46.104;19.656;2023-04-08T03:18:33;154.00;2252.80
56123;DHT22;42426;46.104;19.656;2023-04-08T03:20:59;154.00;2252.80
56123;DHT22;42426;46.104;19.656;2023-04-08T03:23:25;154.00;2252.80
56123;DHT22;42426;46.104;19.656;2023-04-08T03:25:52;154.00;2252.80
56123;DHT22;42426;46.104;19.656;2023-04-08T03:28:18;154.00;2252.80
56123;DHT22;42426;46.104;19.656;2023-04-08T03:30:44;154.00;2252.80
56123;DHT22;42426;46.104;19.656;2023-04-08T03:33:10;154.00;2252.80
56123;DHT22;42426;46.104;19.656;2023-04-08T03:35:36;154.00;2252.80
56123;DHT22;42426;46.104;19.656;2023-04-08T03:38:03;154.00;2252.80
56123;DHT22;42426;46.104;19.656;2023-04-08T03:40:29;154.00;2252.80
56123;DHT22;42426;46.104;19.656;2023-04-08T03:42:55;154.00;2252.80
56123;DHT22;42426;46.104;19.656;2023-04-08T03:45:21;154.00;2252.80
56123;DHT22;42426;46.104;19.656;2023-04-08T03:47:47;153.90;2252.80
56123;DHT22;42426;46.104;19.656;2023-04-08T03:50:13;154.00;2252.80
56123;DHT22;42426;46.104;19.656;2023-04-08T03:52:40;153.90;2252.80
56123;DHT22;42426;46.104;19.656;2023-04-08T03:55:06;153.90;2252.80
56123;DHT22;42426;46.104;19.656;2023-04-08T03:57:32;153.90;2252.80
56123;DHT22;42426;46.104;19.656;2023-04-08T03:59:57;153.90;2252.80
56123;DHT22;42426;46.104;19.656;2023-04-08T04:02:23;153.90;2252.80
56123;DHT22;42426;46.104;19.656;2023-04-08T04:04:49;153.90;2252.80
56123;DHT22;42426;46.104;19.656;2023-04-08T04:07:15;153.90;2252.80
56123;DHT22;42426;46.104;19.656;2023-04-08T04:09:40;153.90;2252.80
56123;DHT22;42426;46.104;19.656;2023-04-08T04:12:06;153.90;2252.80
56123;DHT22;42426;46.104;19.656;2023-04-08T04:14:32;153.90;2252.80
56123;DHT22;42426;46.104;19.656;2023-04-08T04:16:57;153.90;2252.80
56123;DHT22;42426;46.104;19.656;2023-04-08T04:19:23;153.90;2252.80
56123;DHT22;42426;46.104;19.656;2023-04-08T04:21:48;153.90;2252.80
56123;DHT22;42426;46.104;19.656;2023-04-08T04:24:14;153.90;2252.80
56123;DHT22;42426;46.104;19.656;2023-04-08T04:26:40;153.90;2252.80
56123;DHT22;42426;46.104;19.656;2023-04-08T04:29:06;153.90;2252.80
56123;DHT22;42426;46.104;19.656;2023-04-08T04:31:32;153.90;2252.80
56123;DHT22;42426;46.104;19.656;2023-04-08T04:33:58;153.90;2252.80
56123;DHT22;42426;46.104;19.656;2023-04-08T04:36:23;154.00;2252.80
56123;DHT22;42426;46.104;19.656;2023-04-08T04:38:49;154.00;2252.80
56123;DHT22;42426;46.104;19.656;2023-04-08T04:41:15;154.00;2252.80
56123;DHT22;42426;46.104;19.656;2023-04-08T04:43:41;153.90;2252.80
56123;DHT22;42426;46.104;19.656;2023-04-08T04:46:07;153.90;2252.80
56123;DHT22;42426;46.104;19.656;2023-04-08T04:48:34;154.00;2252.80
56123;DHT22;42426;46.104;19.656;2023-04-08T04:51:00;154.00;2252.80
56123;DHT22;42426;46.104;19.656;2023-04-08T04:53:45;154.00;2252.80
56123;DHT22;42426;46.104;19.656;2023-04-08T04:56:31;154.10;2252.80
56123;DHT22;42426;46.104;19.656;2023-04-08T04:59:03;154.00;2252.80
56123;DHT22;42426;46.104;19.656;2023-04-08T05:01:33;154.00;2252.80
56123;DHT22;42426;46.104;19.656;2023-04-08T05:03:59;154.00;2252.80
56123;DHT22;42426;46.104;19.656;2023-04-08T05:06:24;154.00;2252.80
56123;DHT22;42426;46.104;19.656;2023-04-08T05:08:51;154.00;2252.80
56123;DHT22;42426;46.104;19.656;2023-04-08T05:11:18;154.10;2252.80
56123;DHT22;42426;46.104;19.656;2023-04-08T05:13:44;154.10;2252.80
56123;DHT22;42426;46.104;19.656;2023-04-08T05:16:10;154.20;2252.80
56123;DHT22;42426;46.104;19.656;2023-04-08T05:18:35;154.20;2252.80
56123;DHT22;42426;46.104;19.656;2023-04-08T05:21:02;154.20;2252.80
56123;DHT22;42426;46.104;19.656;2023-04-08T05:23:27;154.20;2252.80
56123;DHT22;42426;46.104;19.656;2023-04-08T05:25:53;154.20;2252.80
56123;DHT22;42426;46.104;19.656;2023-04-08T05:28:19;154.20;2252.80
56123;DHT22;42426;46.104;19.656;2023-04-08T05:30:48;154.20;2252.80
56123;DHT22;42426;46.104;19.656;2023-04-08T05:33:15;154.30;2252.80
56123;DHT22;42426;46.104;19.656;2023-04-08T05:35:41;154.30;2252.80
56123;DHT22;42426;46.104;19.656;2023-04-08T05:38:06;154.30;2252.80
56123;DHT22;42426;46.104;19.656;2023-04-08T05:40:32;154.30;2252.80
56123;DHT22;42426;46.104;19.656;2023-04-08T05:42:58;154.40;2252.80
56123;DHT22;42426;46.104;19.656;2023-04-08T05:45:23;154.40;2252.80
56123;DHT22;42426;46.104;19.656;2023-04-08T05:47:49;154.50;2252.80
56123;DHT22;42426;46.104;19.656;2023-04-08T05:50:15;154.50;2252.80
56123;DHT22;42426;46.104;19.656;2023-04-08T05:52:44;154.50;2252.80
56123;DHT22;42426;46.104;19.656;2023-04-08T05:55:11;154.50;2252.80
56123;DHT22;42426;46.104;19.656;2023-04-08T05:57:37;154.50;2252.80
56123;DHT22;42426;46.104;19.656;2023-04-08T06:00:08;179.20;2252.80
56123;DHT22;42426;46.104;19.656;2023-04-08T06:02:34;179.20;2252.80
56123;DHT22;42426;46.104;19.656;2023-04-08T06:05:01;179.20;2252.80
56123;DHT22;42426;46.104;19.656;2023-04-08T06:07:26;179.20;2252.80
56123;DHT22;42426;46.104;19.656;2023-04-08T06:09:52;179.20;2252.80
56123;DHT22;42426;46.104;19.656;2023-04-08T06:12:18;179.20;2252.80
56123;DHT22;42426;46.104;19.656;2023-04-08T06:14:43;179.30;2252.80
56123;DHT22;42426;46.104;19.656;2023-04-08T06:17:09;179.30;2252.80
56123;DHT22;42426;46.104;19.656;2023-04-08T06:19:35;179.30;2252.80
56123;DHT22;42426;46.104;19.656;2023-04-08T06:22:01;179.30;2252.80
56123;DHT22;42426;46.104;19.656;2023-04-08T06:24:27;179.40;2252.80
56123;DHT22;42426;46.104;19.656;2023-04-08T06:26:55;179.40;2252.80
56123;DHT22;42426;46.104;19.656;2023-04-08T06:29:21;179.40;2252.80
56123;DHT22;42426;46.104;19.656;2023-04-08T06:31:48;179.40;2252.80
56123;DHT22;42426;46.104;19.656;2023-04-08T06:34:13;179.30;2252.80
56123;DHT22;42426;46.104;19.656;2023-04-08T06:36:40;179.50;2252.80
56123;DHT22;42426;46.104;19.656;2023-04-08T06:39:06;179.50;2252.80
56123;DHT22;42426;46.104;19.656;2023-04-08T06:41:31;179.50;2252.80
56123;DHT22;42426;46.104;19.656;2023-04-08T06:43:57;179.50;2252.80
56123;DHT22;42426;46.104;19.656;2023-04-08T06:46:23;179.60;2252.80
56123;DHT22;42426;46.104;19.656;2023-04-08T06:48:49;179.60;2252.80
56123;DHT22;42426;46.104;19.656;2023-04-08T06:51:15;179.60;2252.80
56123;DHT22;42426;46.104;19.656;2023-04-08T06:53:41;179.60;2252.80
56123;DHT22;42426;46.104;19.656;2023-04-08T06:56:06;179.60;2252.80
56123;DHT22;42426;46.104;19.656;2023-04-08T06:58:32;179.80;2252.80
56123;DHT22;42426;46.104;19.656;2023-04-08T07:00:58;179.80;2252.80
56123;DHT22;42426;46.104;19.656;2023-04-08T07:03:27;179.90;2252.80
56123;DHT22;42426;46.104;19.656;2023-04-08T07:05:53;179.90;2252.80
56123;DHT22;42426;46.104;19.656;2023-04-08T07:08:19;179.90;2252.80
56123;DHT22;42426;46.104;19.656;2023-04-08T07:10:44;180.00;2252.80
56123;DHT22;42426;46.104;19.656;2023-04-08T07:13:10;180.00;2252.80
56123;DHT22;42426;46.104;19.656;2023-04-08T07:15:36;180.00;2252.80
56123;DHT22;42426;46.104;19.656;2023-04-08T07:18:02;179.90;2252.80
56123;DHT22;42426;46.104;19.656;2023-04-08T07:20:29;180.10;2252.80
56123;DHT22;42426;46.104;19.656;2023-04-08T07:22:55;180.10;2252.80
56123;DHT22;42426;46.104;19.656;2023-04-08T07:25:20;180.10;2252.80
56123;DHT22;42426;46.104;19.656;2023-04-08T07:27:46;180.10;2252.80
56123;DHT22;42426;46.104;19.656;2023-04-08T07:30:12;180.10;2252.80
56123;DHT22;42426;46.104;19.656;2023-04-08T07:32:37;204.80;2252.80
56123;DHT22;42426;46.104;19.656;2023-04-08T07:35:03;204.80;2252.80
56123;DHT22;42426;46.104;19.656;2023-04-08T07:37:29;204.80;2252.80
56123;DHT22;42426;46.104;19.656;2023-04-08T07:39:55;204.90;2252.80
56123;DHT22;42426;46.104;19.656;2023-04-08T07:42:21;204.90;2252.80
56123;DHT22;42426;46.104;19.656;2023-04-08T07:44:48;205.00;2252.80
56123;DHT22;42426;46.104;19.656;2023-04-08T07:47:13;205.10;2252.80
56123;DHT22;42426;46.104;19.656;2023-04-08T07:49:39;205.20;2252.80
56123;DHT22;42426;46.104;19.656;2023-04-08T07:52:05;205.30;2252.80
56123;DHT22;42426;46.104;19.656;2023-04-08T07:54:32;205.40;2252.80
56123;DHT22;42426;46.104;19.656;2023-04-08T07:57:00;205.40;2252.80
56123;DHT22;42426;46.104;19.656;2023-04-08T07:59:27;205.40;2252.80
56123;DHT22;42426;46.104;19.656;2023-04-08T08:01:53;205.40;2252.80
56123;DHT22;42426;46.104;19.656;2023-04-08T08:04:19;205.40;2252.80
56123;DHT22;42426;46.104;19.656;2023-04-08T08:06:45;205.50;2252.80
56123;DHT22;42426;46.104;19.656;2023-04-08T08:09:12;205.50;2252.80
56123;DHT22;42426;46.104;19.656;2023-04-08T08:11:38;205.50;2252.80
56123;DHT22;42426;46.104;19.656;2023-04-08T08:14:03;205.60;2252.80
56123;DHT22;42426;46.104;19.656;2023-04-08T08:16:30;205.70;2252.80
56123;DHT22;42426;46.104;19.656;2023-04-08T08:18:56;205.70;2252.80
56123;DHT22;42426;46.104;19.656;2023-04-08T08:21:22;230.40;2252.80
56123;DHT22;42426;46.104;19.656;2023-04-08T08:23:48;230.40;2252.80
56123;DHT22;42426;46.104;19.656;2023-04-08T08:26:16;230.40;2252.80
56123;DHT22;42426;46.104;19.656;2023-04-08T08:28:42;230.40;2252.80
56123;DHT22;42426;46.104;19.656;2023-04-08T08:31:07;230.50;2252.80
56123;DHT22;42426;46.104;19.656;2023-04-08T08:33:33;230.50;2252.80
56123;DHT22;42426;46.104;19.656;2023-04-08T08:35:59;230.50;2252.80
56123;DHT22;42426;46.104;19.656;2023-04-08T08:38:25;230.60;2252.80
56123;DHT22;42426;46.104;19.656;2023-04-08T08:40:55;230.60;2252.80
56123;DHT22;42426;46.104;19.656;2023-04-08T08:43:25;230.50;2252.80
56123;DHT22;42426;46.104;19.656;2023-04-08T08:45:52;230.60;2252.80
56123;DHT22;42426;46.104;19.656;2023-04-08T08:48:18;230.50;2252.80
56123;DHT22;42426;46.104;19.656;2023-04-08T08:50:44;230.50;2252.80
56123;DHT22;42426;46.104;19.656;2023-04-08T08:53:10;230.60;2252.80
56123;DHT22;42426;46.104;19.656;2023-04-08T08:55:36;230.60;2252.80
56123;DHT22;42426;46.104;19.656;2023-04-08T08:58:04;230.70;2252.80
56123;DHT22;42426;46.104;19.656;2023-04-08T09:00:40;230.70;2252.80
56123;DHT22;42426;46.104;19.656;2023-04-08T09:03:19;230.80;2252.80
56123;DHT22;42426;46.104;19.656;2023-04-08T09:05:53;230.80;2252.80
56123;DHT22;42426;46.104;19.656;2023-04-08T09:10:56;230.80;2252.80
56123;DHT22;42426;46.104;19.656;2023-04-08T09:13:35;230.90;2252.80
56123;DHT22;42426;46.104;19.656;2023-04-08T09:16:06;230.90;2252.80
56123;DHT22;42426;46.104;19.656;2023-04-08T09:18:34;231.00;2252.80
56123;DHT22;42426;46.104;19.656;2023-04-08T09:21:02;231.10;2252.80
56123;DHT22;42426;46.104;19.656;2023-04-08T09:26:10;231.10;2252.80
56123;DHT22;42426;46.104;19.656;2023-04-08T09:28:37;231.20;2252.80
56123;DHT22;42426;46.104;19.656;2023-04-08T09:31:25;231.30;2252.80
56123;DHT22;42426;46.104;19.656;2023-04-08T09:33:54;256.10;2252.80
56123;DHT22;42426;46.104;19.656;2023-04-08T09:36:20;256.20;2252.80
56123;DHT22;42426;46.104;19.656;2023-04-08T09:38:47;256.20;2252.80
56123;DHT22;42426;46.104;19.656;2023-04-08T09:41:17;256.30;2252.80
56123;DHT22;42426;46.104;19.656;2023-04-08T09:43:50;256.30;2227.20
56123;DHT22;42426;46.104;19.656;2023-04-08T09:46:43;256.40;2227.20
56123;DHT22;42426;46.104;19.656;2023-04-08T09:49:17;256.50;2201.60
56123;DHT22;42426;46.104;19.656;2023-04-08T09:52:06;256.50;2227.20
56123;DHT22;42426;46.104;19.656;2023-04-08T09:55:04;256.50;2176.00
56123;DHT22;42426;46.104;19.656;2023-04-08T09:57:43;256.70;2176.00
56123;DHT22;42426;46.104;19.656;2023-04-08T10:02:55;256.70;2176.00
56123;DHT22;42426;46.104;19.656;2023-04-08T10:05:27;256.80;2150.40
56123;DHT22;42426;46.104;19.656;2023-04-08T10:07:58;281.60;2150.40
56123;DHT22;42426;46.104;19.656;2023-04-08T10:10:24;256.90;2124.80
56123;DHT22;42426;46.104;19.656;2023-04-08T10:12:50;256.90;2124.80
56123;DHT22;42426;46.104;19.656;2023-04-08T10:17:49;256.80;2124.80
56123;DHT22;42426;46.104;19.656;2023-04-08T10:20:40;256.80;2150.40
56123;DHT22;42426;46.104;19.656;2023-04-08T10:23:07;256.90;2150.40
56123;DHT22;42426;46.104;19.656;2023-04-08T10:35:40;256.70;2150.40
56123;DHT22;42426;46.104;19.656;2023-04-08T10:38:07;256.80;2176.00
56123;DHT22;42426;46.104;19.656;2023-04-08T10:40:38;256.80;2124.80
56123;DHT22;42426;46.104;19.656;2023-04-08T10:43:10;256.80;2150.40
56123;DHT22;42426;46.104;19.656;2023-04-08T10:45:37;256.80;2150.40
56123;DHT22;42426;46.104;19.656;2023-04-08T10:48:22;256.90;2176.00
56123;DHT22;42426;46.104;19.656;2023-04-08T10:51:11;256.90;2176.00
56123;DHT22;42426;46.104;19.656;2023-04-08T10:53:40;256.90;2176.00
56123;DHT22;42426;46.104;19.656;2023-04-08T10:56:06;281.60;2201.60
56123;DHT22;42426;46.104;19.656;2023-04-08T10:58:33;256.90;2150.40
56123;DHT22;42426;46.104;19.656;2023-04-08T11:01:03;256.80;2124.80
56123;DHT22;42426;46.104;19.656;2023-04-08T11:03:32;256.80;2176.00
56123;DHT22;42426;46.104;19.656;2023-04-08T11:05:59;256.80;2150.40
56123;DHT22;42426;46.104;19.656;2023-04-08T11:08:35;256.80;2150.40
56123;DHT22;42426;46.104;19.656;2023-04-08T11:11:02;256.70;2150.40
56123;DHT22;42426;46.104;19.656;2023-04-08T11:13:29;256.70;2150.40
56123;DHT22;42426;46.104;19.656;2023-04-08T11:15:57;256.60;2150.40
56123;DHT22;42426;46.104;19.656;2023-04-08T11:18:23;256.70;2176.00
56123;DHT22;42426;46.104;19.656;2023-04-08T11:20:52;256.70;2176.00
56123;DHT22;42426;46.104;19.656;2023-04-08T11:23:19;256.70;2150.40
56123;DHT22;42426;46.104;19.656;2023-04-08T11:25:47;256.60;2124.80
56123;DHT22;42426;46.104;19.656;2023-04-08T11:28:24;256.60;2124.80
56123;DHT22;42426;46.104;19.656;2023-04-08T11:30:51;256.50;2124.80
56123;DHT22;42426;46.104;19.656;2023-04-08T11:33:25;256.50;2124.80
56123;DHT22;42426;46.104;19.656;2023-04-08T11:35:51;256.40;2124.80
56123;DHT22;42426;46.104;19.656;2023-04-08T11:38:22;256.40;2124.80
56123;DHT22;42426;46.104;19.656;2023-04-08T11:40:54;256.30;2124.80
56123;DHT22;42426;46.104;19.656;2023-04-08T11:43:21;256.30;2150.40
56123;DHT22;42426;46.104;19.656;2023-04-08T11:45:47;256.30;2150.40
56123;DHT22;42426;46.104;19.656;2023-04-08T11:48:14;256.30;2150.40
56123;DHT22;42426;46.104;19.656;2023-04-08T11:50:41;256.30;2176.00
56123;DHT22;42426;46.104;19.656;2023-04-08T11:53:18;256.30;2201.60
56123;DHT22;42426;46.104;19.656;2023-04-08T11:55:44;256.30;2201.60
56123;DHT22;42426;46.104;19.656;2023-04-08T11:58:11;256.20;2201.60
56123;DHT22;42426;46.104;19.656;2023-04-08T12:00:37;256.30;2201.60
56123;DHT22;42426;46.104;19.656;2023-04-08T12:03:06;256.10;2227.20
56123;DHT22;42426;46.104;19.656;2023-04-08T12:05:32;256.10;2227.20
56123;DHT22;42426;46.104;19.656;2023-04-08T12:07:59;256.00;2227.20
56123;DHT22;42426;46.104;19.656;2023-04-08T12:10:25;256.00;2252.80
56123;DHT22;42426;46.104;19.656;2023-04-08T12:12:51;256.00;2252.80
56123;DHT22;42426;46.104;19.656;2023-04-08T12:15:27;256.00;2252.80
56123;DHT22;42426;46.104;19.656;2023-04-08T12:17:55;256.00;2252.80
56123;DHT22;42426;46.104;19.656;2023-04-08T12:20:26;256.00;2252.80
56123;DHT22;42426;46.104;19.656;2023-04-08T12:22:55;256.00;2252.80
56123;DHT22;42426;46.104;19.656;2023-04-08T12:25:32;256.00;2252.80
56123;DHT22;42426;46.104;19.656;2023-04-08T12:28:11;231.20;2252.80
56123;DHT22;42426;46.104;19.656;2023-04-08T12:30:42;231.30;2252.80
56123;DHT22;42426;46.104;19.656;2023-04-08T12:33:10;256.40;2252.80
56123;DHT22;42426;46.104;19.656;2023-04-08T12:35:35;231.30;2252.80
56123;DHT22;42426;46.104;19.656;2023-04-08T12:38:02;256.00;2252.80
56123;DHT22;42426;46.104;19.656;2023-04-08T12:40:31;256.00;2252.80
56123;DHT22;42426;46.104;19.656;2023-04-08T12:43:00;256.00;2252.80
56123;DHT22;42426;46.104;19.656;2023-04-08T12:45:29;256.00;2252.80
56123;DHT22;42426;46.104;19.656;2023-04-08T12:47:55;256.00;2252.80
56123;DHT22;42426;46.104;19.656;2023-04-08T12:50:24;231.30;2252.80
56123;DHT22;42426;46.104;19.656;2023-04-08T12:52:59;231.30;2252.80
56123;DHT22;42426;46.104;19.656;2023-04-08T12:55:27;231.30;2252.80
56123;DHT22;42426;46.104;19.656;2023-04-08T12:58:07;231.30;2252.80
56123;DHT22;42426;46.104;19.656;2023-04-08T13:00:33;231.20;2252.80
56123;DHT22;42426;46.104;19.656;2023-04-08T13:03:06;231.20;2252.80
56123;DHT22;42426;46.104;19.656;2023-04-08T13:05:45;231.20;2252.80
56123;DHT22;42426;46.104;19.656;2023-04-08T13:08:13;231.20;2252.80
56123;DHT22;42426;46.104;19.656;2023-04-08T13:10:40;231.10;2252.80
56123;DHT22;42426;46.104;19.656;2023-04-08T13:13:06;231.10;2252.80
56123;DHT22;42426;46.104;19.656;2023-04-08T13:15:34;256.30;2252.80
56123;DHT22;42426;46.104;19.656;2023-04-08T13:18:03;231.10;2252.80
56123;DHT22;42426;46.104;19.656;2023-04-08T13:20:30;256.00;2252.80
56123;DHT22;42426;46.104;19.656;2023-04-08T13:22:56;231.10;2252.80
56123;DHT22;42426;46.104;19.656;2023-04-08T13:25:40;231.10;2252.80
56123;DHT22;42426;46.104;19.656;2023-04-08T13:28:06;231.10;2252.80
56123;DHT22;42426;46.104;19.656;2023-04-08T13:30:35;231.00;2252.80
56123;DHT22;42426;46.104;19.656;2023-04-08T13:33:04;231.00;2252.80
56123;DHT22;42426;46.104;19.656;2023-04-08T13:35:48;231.00;2252.80
56123;DHT22;42426;46.104;19.656;2023-04-08T13:38:14;230.90;2252.80
56123;DHT22;42426;46.104;19.656;2023-04-08T13:40:43;230.80;2252.80
56123;DHT22;42426;46.104;19.656;2023-04-08T13:43:11;230.90;2252.80
56123;DHT22;42426;46.104;19.656;2023-04-08T13:45:40;230.90;2252.80
56123;DHT22;42426;46.104;19.656;2023-04-08T13:48:09;230.80;2252.80
56123;DHT22;42426;46.104;19.656;2023-04-08T13:50:35;231.30;2252.80
56123;DHT22;42426;46.104;19.656;2023-04-08T13:53:01;230.80;2252.80
56123;DHT22;42426;46.104;19.656;2023-04-08T13:55:30;230.90;2252.80
56123;DHT22;42426;46.104;19.656;2023-04-08T13:57:56;230.80;2252.80
56123;DHT22;42426;46.104;19.656;2023-04-08T14:00:21;230.80;2252.80
56123;DHT22;42426;46.104;19.656;2023-04-08T14:02:47;230.80;2252.80
56123;DHT22;42426;46.104;19.656;2023-04-08T14:05:14;230.90;2252.80
56123;DHT22;42426;46.104;19.656;2023-04-08T14:07:41;230.80;2252.80
56123;DHT22;42426;46.104;19.656;2023-04-08T14:10:07;230.80;2252.80
56123;DHT22;42426;46.104;19.656;2023-04-08T14:12:33;230.80;2252.80
56123;DHT22;42426;46.104;19.656;2023-04-08T14:14:58;230.80;2252.80
56123;DHT22;42426;46.104;19.656;2023-04-08T14:17:24;230.80;2252.80
56123;DHT22;42426;46.104;19.656;2023-04-08T14:19:51;230.80;2252.80
56123;DHT22;42426;46.104;19.656;2023-04-08T14:22:17;230.80;2252.80
56123;DHT22;42426;46.104;19.656;2023-04-08T14:24:43;230.80;2252.80
56123;DHT22;42426;46.104;19.656;2023-04-08T14:27:09;230.90;2252.80
56123;DHT22;42426;46.104;19.656;2023-04-08T14:29:35;230.90;2252.80
56123;DHT22;42426;46.104;19.656;2023-04-08T14:32:03;231.00;2252.80
56123;DHT22;42426;46.104;19.656;2023-04-08T14:34:29;230.70;2252.80
56123;DHT22;42426;46.104;19.656;2023-04-08T14:36:55;230.90;2252.80
56123;DHT22;42426;46.104;19.656;2023-04-08T14:39:21;230.90;2252.80
56123;DHT22;42426;46.104;19.656;2023-04-08T14:41:47;230.80;2252.80
56123;DHT22;42426;46.104;19.656;2023-04-08T14:44:13;230.80;2252.80
56123;DHT22;42426;46.104;19.656;2023-04-08T14:46:38;230.80;2252.80
56123;DHT22;42426;46.104;19.656;2023-04-08T14:49:04;230.70;2252.80
56123;DHT22;42426;46.104;19.656;2023-04-08T14:51:31;230.80;2252.80
56123;DHT22;42426;46.104;19.656;2023-04-08T14:53:57;230.70;2252.80
56123;DHT22;42426;46.104;19.656;2023-04-08T14:56:25;230.70;2252.80
56123;DHT22;42426;46.104;19.656;2023-04-08T14:58:53;230.70;2252.80
56123;DHT22;42426;46.104;19.656;2023-04-08T15:01:19;230.70;2252.80
56123;DHT22;42426;46.104;19.656;2023-04-08T15:03:45;230.60;2252.80
56123;DHT22;42426;46.104;19.656;2023-04-08T15:06:11;230.60;2252.80